Time;durP1;ratioP1;P1;durP2;ratioP2;P2;SDS_P1;SDS_P2;PMS_P1;PMS_P2;Temp;Humidity;BMP_temperature;BMP_pressure;BME280_temperature;BME280_humidity;BME280_pressure;Samples;Min_cycle;Max_cycle;Signal;HPM_P1;HPM_P2
2023/03/07 00:01:56;;;;;;;32.25;17.75;;;3.30;57.00;;;;;;5000039;28;114786;-78
2023/03/07 00:04:23;;;;;;;29.42;16.52;;;3.30;57.10;;;;;;4983494;28;114312;-78
2023/03/07 00:06:50;;;;;;;32.03;17.25;;;3.20;57.10;;;;;;4986583;28;114467;-78
2023/03/07 00:09:17;;;;;;;27.20;15.82;;;3.30;56.80;;;;;;5003567;28;115047;-78
2023/03/07 00:11:45;;;;;;;29.00;15.18;;;3.30;56.70;;;;;;5004272;28;114597;-78
2023/03/07 00:14:12;;;;;;;25.92;14.63;;;3.20;56.60;;;;;;4971289;28;114329;-78
2023/03/07 00:16:39;;;;;;;22.70;12.93;;;3.20;56.60;;;;;;4971249;28;114778;-80
2023/03/07 00:19:06;;;;;;;23.15;13.57;;;3.20;56.30;;;;;;4986197;28;116281;-78
2023/03/07 00:21:34;;;;;;;21.58;11.73;;;3.20;56.20;;;;;;4970443;28;114737;-78
2023/03/07 00:24:01;;;;;;;19.45;12.30;;;3.20;56.40;;;;;;4970956;28;115850;-78
2023/03/07 00:26:28;;;;;;;20.75;12.40;;;3.20;56.20;;;;;;4987523;28;114379;-78
2023/03/07 00:28:55;;;;;;;20.85;12.13;;;3.20;56.30;;;;;;4985719;28;114916;-78
2023/03/07 00:31:23;;;;;;;20.33;12.05;;;3.20;56.10;;;;;;4970230;28;115217;-78
2023/03/07 00:33:50;;;;;;;19.08;12.43;;;3.20;56.10;;;;;;5005023;28;114288;-79
2023/03/07 00:36:20;;;;;;;18.92;11.20;;;3.20;56.20;;;;;;5005635;28;114468;-78
2023/03/07 00:38:47;;;;;;;20.90;11.85;;;3.20;56.10;;;;;;4969934;28;115270;-78
2023/03/07 00:41:17;;;;;;;22.83;11.85;;;3.20;56.10;;;;;;4969842;28;114689;-78
2023/03/07 00:43:45;;;;;;;20.02;11.40;;;3.20;56.10;;;;;;4970804;28;114641;-78
2023/03/07 00:46:17;;;;;;;25.33;13.38;;;3.10;56.20;;;;;;5004804;28;114476;-78
2023/03/07 00:48:44;;;;;;;19.48;12.38;;;3.10;56.20;;;;;;4985412;28;115440;-78
2023/03/07 00:51:14;;;;;;;21.00;12.02;;;3.10;56.40;;;;;;4969691;28;115168;-77
2023/03/07 00:53:41;;;;;;;22.15;12.57;;;3.10;56.20;;;;;;4986833;28;114386;-78
2023/03/07 00:56:24;;;;;;;20.75;11.10;;;3.10;56.10;;;;;;4954103;28;114494;-78
2023/03/07 00:58:54;;;;;;;22.88;11.75;;;3.10;56.10;;;;;;5003519;28;115181;-78
2023/03/07 01:01:23;;;;;;;19.83;12.23;;;3.00;56.20;;;;;;4986161;28;114713;-78
2023/03/07 01:03:52;;;;;;;19.30;12.82;;;3.00;56.20;;;;;;4970053;28;114968;-78
2023/03/07 01:06:24;;;;;;;21.05;12.30;;;3.00;56.20;;;;;;4954965;28;114390;-79
2023/03/07 01:08:54;;;;;;;18.65;10.88;;;3.00;56.20;;;;;;4969789;28;115362;-78
2023/03/07 01:11:21;;;;;;;19.05;11.05;;;2.90;56.20;;;;;;4968812;28;114787;-78
2023/03/07 01:13:49;;;;;;;18.48;11.73;;;2.90;56.20;;;;;;4966278;28;114529;-78
2023/03/07 01:16:22;;;;;;;18.77;11.15;;;2.80;56.30;;;;;;4966007;28;114550;-78
2023/03/07 01:18:52;;;;;;;18.40;10.80;;;2.80;56.30;;;;;;4965891;28;115404;-78
2023/03/07 01:21:22;;;;;;;21.33;11.57;;;2.80;56.20;;;;;;4983036;28;114587;-78
2023/03/07 01:23:50;;;;;;;19.08;11.25;;;2.80;56.40;;;;;;4964312;28;114429;-78
2023/03/07 01:26:20;;;;;;;18.80;11.70;;;2.80;56.50;;;;;;4966920;28;114349;-78
2023/03/07 01:28:50;;;;;;;20.15;10.90;;;2.80;56.60;;;;;;4966087;28;115126;-78
2023/03/07 01:31:17;;;;;;;18.88;11.32;;;2.80;56.60;;;;;;4946403;28;114650;-78
2023/03/07 01:33:47;;;;;;;23.48;11.55;;;2.80;56.60;;;;;;4965871;28;114406;-78
2023/03/07 01:36:29;;;;;;;19.23;11.05;;;2.90;56.70;;;;;;4940515;28;114529;-78
2023/03/07 01:39:13;;;;;;;19.15;11.65;;;2.90;56.60;;;;;;4942062;28;115272;-78
2023/03/07 01:42:03;;;;;;;19.02;11.77;;;3.00;56.50;;;;;;4971693;28;114569;-79
2023/03/07 01:44:31;;;;;;;21.83;11.98;;;2.90;56.70;;;;;;4969659;28;114456;-79
2023/03/07 01:46:59;;;;;;;20.75;11.75;;;2.90;56.70;;;;;;4953112;28;114488;-78
2023/03/07 01:49:45;;;;;;;17.98;10.93;;;2.90;56.50;;;;;;4971063;28;116353;-78
2023/03/07 01:52:21;;;;;;;20.55;11.35;;;3.00;56.50;;;;;;4953402;28;114567;-78
2023/03/07 01:54:55;;;;;;;21.48;11.63;;;3.00;56.80;;;;;;4940485;28;114248;-78
2023/03/07 01:57:27;;;;;;;19.17;11.55;;;3.00;56.50;;;;;;4969923;28;114386;-78
2023/03/07 01:59:56;;;;;;;19.88;12.15;;;3.10;56.50;;;;;;4968301;28;115615;-78
2023/03/07 02:02:23;;;;;;;19.67;11.55;;;3.10;56.60;;;;;;4936631;28;114630;-78
2023/03/07 02:05:42;;;;;;;16.33;10.57;;;3.10;56.40;;;;;;4969271;28;115040;-78
2023/03/07 02:08:11;;;;;;;19.65;11.57;;;3.20;56.20;;;;;;4928075;28;114778;-78
2023/03/07 02:10:38;;;;;;;17.80;11.27;;;3.10;56.40;;;;;;5002417;28;116034;-78
2023/03/07 02:13:05;;;;;;;20.38;11.57;;;3.10;56.50;;;;;;4935961;28;114622;-78
2023/03/07 02:15:33;;;;;;;19.55;11.55;;;3.10;56.30;;;;;;4969072;28;114416;-78
2023/03/07 02:18:01;;;;;;;18.52;11.55;;;3.20;56.30;;;;;;4986049;28;114607;-79
2023/03/07 02:20:57;;;;;;;20.67;11.55;;;3.20;56.20;;;;;;4952477;28;115473;-78
2023/03/07 02:23:45;;;;;;;19.23;11.10;;;3.20;56.30;;;;;;5002414;28;116856;-78
2023/03/07 02:26:23;;;;;;;19.10;12.10;;;3.20;56.30;;;;;;4984647;28;114307;-78
2023/03/07 02:28:50;;;;;;;19.50;11.65;;;3.20;56.30;;;;;;4969806;28;114302;-78
2023/03/07 02:31:18;;;;;;;18.75;11.40;;;3.20;56.30;;;;;;4952161;28;115129;-78
2023/03/07 02:33:45;;;;;;;19.00;12.50;;;3.20;56.20;;;;;;4968371;28;114821;-79
2023/03/07 02:36:22;;;;;;;19.52;11.48;;;3.20;56.30;;;;;;4968865;28;114383;-79
2023/03/07 02:39:15;;;;;;;18.17;10.40;;;3.20;56.20;;;;;;4973676;28;114808;-78
2023/03/07 02:41:43;;;;;;;20.40;11.90;;;3.20;56.10;;;;;;4952145;28;115243;-78
2023/03/07 02:44:19;;;;;;;20.08;11.10;;;3.20;56.00;;;;;;4958514;28;115749;-79
2023/03/07 02:46:46;;;;;;;19.25;11.18;;;3.20;56.10;;;;;;4949606;28;114368;-78
2023/03/07 02:49:14;;;;;;;19.90;11.93;;;3.20;56.20;;;;;;4949341;28;114867;-78
2023/03/07 02:51:41;;;;;;;19.42;11.40;;;3.20;56.30;;;;;;4966566;28;116932;-78
2023/03/07 02:54:08;;;;;;;18.60;11.43;;;3.20;56.20;;;;;;4984344;28;114736;-78
2023/03/07 02:56:36;;;;;;;19.05;12.30;;;3.20;56.30;;;;;;4985097;28;115142;-79
2023/03/07 02:59:03;;;;;;;17.17;10.43;;;3.20;56.30;;;;;;5002171;28;114447;-78
2023/03/07 03:01:30;;;;;;;16.40;10.75;;;3.20;56.30;;;;;;4983370;28;115572;-78
2023/03/07 03:03:58;;;;;;;19.23;11.63;;;3.20;56.10;;;;;;4951756;28;114665;-78
2023/03/07 03:06:25;;;;;;;19.65;11.88;;;3.20;56.00;;;;;;4968171;28;114472;-78
2023/03/07 03:08:52;;;;;;;19.85;11.88;;;3.20;55.90;;;;;;4968794;28;114370;-78
2023/03/07 03:11:19;;;;;;;19.65;11.35;;;3.20;55.90;;;;;;4983703;28;115055;-79
2023/03/07 03:13:46;;;;;;;17.23;10.60;;;3.20;56.20;;;;;;4984031;28;114607;-78
2023/03/07 03:16:14;;;;;;;18.42;11.02;;;3.20;55.90;;;;;;4958269;28;115241;-78
2023/03/07 03:18:41;;;;;;;20.33;11.27;;;3.20;56.00;;;;;;4982673;28;114383;-78
2023/03/07 03:21:09;;;;;;;16.95;10.82;;;3.20;55.90;;;;;;4982073;28;115671;-78
2023/03/07 03:23:37;;;;;;;19.20;11.20;;;3.20;55.90;;;;;;4947913;28;117370;-78
2023/03/07 03:26:08;;;;;;;19.17;11.63;;;3.20;55.80;;;;;;4965215;28;114668;-78
2023/03/07 03:28:36;;;;;;;20.33;12.30;;;3.20;56.20;;;;;;4933002;28;114661;-78
2023/03/07 03:31:09;;;;;;;17.65;11.52;;;3.20;55.90;;;;;;4948114;28;115091;-78
2023/03/07 03:33:38;;;;;;;18.95;11.65;;;3.20;55.90;;;;;;4948810;28;114664;-78
2023/03/07 03:36:13;;;;;;;21.35;11.90;;;3.20;56.10;;;;;;4932905;28;114830;-78
2023/03/07 03:38:40;;;;;;;18.77;11.63;;;3.20;56.00;;;;;;4933404;28;114819;-78
2023/03/07 03:41:14;;;;;;;19.42;11.07;;;3.20;56.30;;;;;;4934688;28;115085;-78
2023/03/07 03:43:43;;;;;;;17.77;11.00;;;3.20;55.80;;;;;;4967598;28;115105;-78
2023/03/07 03:46:10;;;;;;;21.33;12.13;;;3.20;56.00;;;;;;4968445;28;114220;-78
2023/03/07 03:48:40;;;;;;;19.33;11.27;;;3.20;55.80;;;;;;4952700;28;114268;-78
2023/03/07 03:51:10;;;;;;;17.98;11.32;;;3.20;55.70;;;;;;4951391;28;115037;-78
2023/03/07 03:53:38;;;;;;;18.95;11.25;;;3.10;55.80;;;;;;4951247;28;114840;-78
2023/03/07 03:56:16;;;;;;;16.67;11.02;;;3.10;55.80;;;;;;4932664;28;114453;-78
2023/03/07 03:58:55;;;;;;;19.20;11.30;;;3.10;55.70;;;;;;4919944;28;114543;-78
2023/03/07 04:01:25;;;;;;;18.63;11.02;;;3.10;55.80;;;;;;4951231;28;115073;-78
2023/03/07 04:03:52;;;;;;;18.88;11.40;;;3.10;55.90;;;;;;4951476;28;115252;-78
2023/03/07 04:06:26;;;;;;;20.92;12.13;;;3.10;55.70;;;;;;4916439;28;114194;-78
2023/03/07 04:08:55;;;;;;;20.58;11.63;;;3.10;55.70;;;;;;4953671;28;114327;-78
2023/03/07 04:11:23;;;;;;;18.20;11.35;;;3.00;55.80;;;;;;4970975;28;115013;-78
2023/03/07 04:13:51;;;;;;;21.08;12.35;;;3.00;55.90;;;;;;4970945;28;114690;-79
2023/03/07 04:16:21;;;;;;;18.70;10.85;;;2.90;55.90;;;;;;4971728;28;114199;-78
2023/03/07 04:18:51;;;;;;;17.88;11.50;;;2.90;55.80;;;;;;4971782;28;114259;-78
2023/03/07 04:21:19;;;;;;;18.35;11.52;;;2.80;55.90;;;;;;4970082;28;115941;-78
2023/03/07 04:23:54;;;;;;;19.20;11.55;;;2.80;55.90;;;;;;4939114;28;114894;-78
2023/03/07 04:26:23;;;;;;;21.88;11.85;;;2.80;56.10;;;;;;4958328;28;114405;-77
2023/03/07 04:28:50;;;;;;;21.23;12.35;;;2.70;56.20;;;;;;4955509;28;114773;-78
2023/03/07 04:31:35;;;;;;;17.95;10.95;;;2.70;56.30;;;;;;5004303;28;115178;-78
2023/03/07 04:34:04;;;;;;;20.17;12.52;;;2.70;56.40;;;;;;4958736;28;114658;-78
2023/03/07 04:36:32;;;;;;;20.92;11.48;;;2.70;56.60;;;;;;4967561;28;114344;-78
2023/03/07 04:38:59;;;;;;;17.25;11.10;;;2.70;56.60;;;;;;4985200;28;114278;-78
2023/03/07 04:41:27;;;;;;;20.38;13.18;;;2.70;56.70;;;;;;4984312;28;116207;-79
2023/03/07 04:44:04;;;;;;;20.75;12.30;;;2.60;56.70;;;;;;4936311;28;116893;-78
2023/03/07 04:46:31;;;;;;;24.33;14.65;;;2.70;56.70;;;;;;4950912;28;114546;-78
2023/03/07 04:48:59;;;;;;;21.15;13.25;;;2.60;56.80;;;;;;4968147;28;114351;-78
2023/03/07 04:51:26;;;;;;;25.90;14.45;;;2.70;56.80;;;;;;4949108;28;115109;-78
2023/03/07 04:53:53;;;;;;;27.45;15.57;;;2.60;56.80;;;;;;4983960;28;116344;-78
2023/03/07 04:56:20;;;;;;;24.40;14.68;;;2.60;57.10;;;;;;4984482;28;114481;-78
2023/03/07 04:58:47;;;;;;;26.98;15.82;;;2.60;57.10;;;;;;4967078;28;114345;-78
2023/03/07 05:01:17;;;;;;;26.45;16.00;;;2.50;57.20;;;;;;4934603;28;115130;-78
2023/03/07 05:03:44;;;;;;;27.00;16.65;;;2.50;57.40;;;;;;4984189;28;115085;-78
2023/03/07 05:06:13;;;;;;;25.63;15.63;;;2.50;57.50;;;;;;4966907;28;114517;-78
2023/03/07 05:08:43;;;;;;;23.77;15.23;;;2.50;57.80;;;;;;4962348;28;114633;-78
2023/03/07 05:11:10;;;;;;;28.98;16.83;;;2.50;57.80;;;;;;4966001;28;115031;-78
2023/03/07 05:13:37;;;;;;;29.02;17.88;;;2.50;58.00;;;;;;4966261;28;114672;-79
2023/03/07 05:16:08;;;;;;;30.10;17.50;;;2.50;57.90;;;;;;4967669;28;114529;-78
2023/03/07 05:18:35;;;;;;;33.20;18.63;;;2.40;58.00;;;;;;4966761;28;114552;-78
2023/03/07 05:21:02;;;;;;;34.78;19.30;;;2.40;58.10;;;;;;4949633;28;115423;-78
2023/03/07 05:23:29;;;;;;;38.03;21.02;;;2.40;58.30;;;;;;4966034;28;114716;-78
2023/03/07 05:25:57;;;;;;;36.13;20.85;;;2.30;58.30;;;;;;4966377;28;114506;-79
2023/03/07 05:28:24;;;;;;;37.15;20.45;;;2.30;58.40;;;;;;4950917;28;114270;-78
2023/03/07 05:30:52;;;;;;;35.20;20.77;;;2.30;58.70;;;;;;4949514;28;119026;-78
2023/03/07 05:33:19;;;;;;;38.17;20.23;;;2.40;58.80;;;;;;4949441;28;114522;-80
2023/03/07 05:35:47;;;;;;;38.97;20.52;;;2.40;58.70;;;;;;4966660;28;114401;-80
2023/03/07 05:38:15;;;;;;;37.25;19.92;;;2.30;58.80;;;;;;4963108;28;114462;-80
2023/03/07 05:40:42;;;;;;;39.90;22.58;;;2.40;58.80;;;;;;4932736;28;116266;-80
2023/03/07 05:43:11;;;;;;;42.65;22.90;;;2.40;58.80;;;;;;4965573;28;115229;-79
2023/03/07 05:45:38;;;;;;;36.90;21.42;;;2.30;58.70;;;;;;4949749;28;114402;-80
2023/03/07 05:48:05;;;;;;;43.45;23.05;;;2.40;58.80;;;;;;4950450;28;114598;-80
2023/03/07 05:50:33;;;;;;;47.80;23.42;;;2.40;59.00;;;;;;4968277;28;115192;-79
2023/03/07 05:53:00;;;;;;;39.97;23.00;;;2.40;59.00;;;;;;5003286;28;114576;-80
2023/03/07 05:55:29;;;;;;;44.35;22.20;;;2.40;59.10;;;;;;4986275;28;114481;-79
2023/03/07 05:57:58;;;;;;;43.00;23.42;;;2.40;59.10;;;;;;4986390;28;114377;-79
2023/03/07 06:00:26;;;;;;;42.08;22.90;;;2.40;59.30;;;;;;4968569;28;115155;-79
2023/03/07 06:03:01;;;;;;;42.08;25.00;;;2.50;59.20;;;;;;4986323;28;114712;-79
2023/03/07 06:05:30;;;;;;;47.53;26.83;;;2.50;59.40;;;;;;4986079;28;114419;-80
2023/03/07 06:07:57;;;;;;;45.22;25.42;;;2.50;59.20;;;;;;5004247;28;114283;-79
2023/03/07 06:10:24;;;;;;;45.25;25.67;;;2.50;59.30;;;;;;4984823;28;115106;-79
2023/03/07 06:12:52;;;;;;;47.78;25.98;;;2.60;59.30;;;;;;4984455;28;115273;-78
2023/03/07 06:15:20;;;;;;;41.35;21.70;;;2.60;59.30;;;;;;4969759;28;114376;-79
2023/03/07 06:17:51;;;;;;;41.08;22.40;;;2.60;59.20;;;;;;4986053;28;114425;-78
2023/03/07 06:20:22;;;;;;;34.58;21.08;;;2.60;59.10;;;;;;4968712;28;116730;-79
2023/03/07 06:22:52;;;;;;;37.17;21.70;;;2.60;59.50;;;;;;4984636;28;114634;-78
2023/03/07 06:25:20;;;;;;;38.75;21.00;;;2.70;59.40;;;;;;4985553;28;114608;-80
2023/03/07 06:27:48;;;;;;;39.70;21.70;;;2.70;59.20;;;;;;4986859;28;114333;-79
2023/03/07 06:30:15;;;;;;;38.45;21.80;;;2.70;59.10;;;;;;5002870;28;115216;-79
2023/03/07 06:32:43;;;;;;;39.13;22.55;;;2.70;59.10;;;;;;4968654;28;114977;-79
2023/03/07 06:35:11;;;;;;;42.55;23.52;;;2.70;59.10;;;;;;4936563;28;114158;-78
2023/03/07 06:37:38;;;;;;;40.17;23.55;;;2.80;59.30;;;;;;4978493;28;114248;-79
2023/03/07 06:40:08;;;;;;;42.17;23.60;;;2.80;59.20;;;;;;4964691;28;115256;-79
2023/03/07 06:42:37;;;;;;;41.42;23.55;;;2.90;59.20;;;;;;4987591;28;114978;-79
2023/03/07 06:45:05;;;;;;;49.08;26.90;;;2.90;59.30;;;;;;4985400;28;114242;-79
2023/03/07 06:47:33;;;;;;;42.72;23.20;;;3.00;59.00;;;;;;4985176;28;114772;-79
2023/03/07 06:50:01;;;;;;;41.70;23.35;;;3.00;59.00;;;;;;4984746;28;115120;-79
2023/03/07 06:52:30;;;;;;;40.30;23.05;;;3.00;59.00;;;;;;4968648;28;114540;-80
2023/03/07 06:54:59;;;;;;;44.10;24.67;;;3.10;59.20;;;;;;4985340;28;114375;-79
2023/03/07 06:57:28;;;;;;;39.78;22.98;;;3.10;59.00;;;;;;4969161;28;114423;-79
2023/03/07 06:59:56;;;;;;;38.78;23.08;;;3.20;59.00;;;;;;4983816;28;115043;-79
2023/03/07 07:02:23;;;;;;;41.47;22.42;;;3.20;58.80;;;;;;4984525;28;115190;-79
2023/03/07 07:04:53;;;;;;;38.85;23.67;;;3.20;58.80;;;;;;4985419;28;114459;-79
2023/03/07 07:07:20;;;;;;;42.88;22.73;;;3.20;58.70;;;;;;4974659;28;114412;-79
2023/03/07 07:09:48;;;;;;;39.45;22.35;;;3.30;58.60;;;;;;4932163;28;116998;-79
2023/03/07 07:12:15;;;;;;;41.75;22.70;;;3.30;58.50;;;;;;4948501;28;114993;-79
2023/03/07 07:14:44;;;;;;;35.78;21.85;;;3.30;58.70;;;;;;4933132;28;114441;-79
2023/03/07 07:17:12;;;;;;;38.78;22.88;;;3.40;58.60;;;;;;4967455;28;114345;-78
2023/03/07 07:19:41;;;;;;;38.28;23.15;;;3.30;58.50;;;;;;4933437;28;115196;-79
2023/03/07 07:22:10;;;;;;;47.28;30.98;;;3.40;58.60;;;;;;4964823;28;114585;-79
2023/03/07 07:24:38;;;;;;;42.30;24.65;;;3.50;58.50;;;;;;4949406;28;114180;-79
2023/03/07 07:27:06;;;;;;;42.50;23.77;;;3.50;58.40;;;;;;4965293;28;114412;-80
2023/03/07 07:29:33;;;;;;;35.47;20.50;;;3.50;58.30;;;;;;4964330;28;115223;-79
2023/03/07 07:32:01;;;;;;;33.60;19.50;;;3.50;58.30;;;;;;4947858;28;117881;-79
2023/03/07 07:34:28;;;;;;;33.22;20.33;;;3.50;58.20;;;;;;4966026;28;114263;-80
2023/03/07 07:36:57;;;;;;;33.05;18.70;;;3.60;57.90;;;;;;4963382;28;114581;-80
2023/03/07 07:39:24;;;;;;;37.08;18.73;;;3.60;57.90;;;;;;4951811;28;117995;-80
2023/03/07 07:41:51;;;;;;;29.85;18.40;;;3.60;57.90;;;;;;5002579;28;116191;-79
2023/03/07 07:44:22;;;;;;;26.13;16.85;;;3.60;57.70;;;;;;4968531;28;114381;-79
2023/03/07 07:46:59;;;;;;;24.90;14.35;;;3.70;57.30;;;;;;4985192;28;114423;-79
2023/03/07 07:49:27;;;;;;;23.02;14.65;;;3.70;57.10;;;;;;5001231;28;115063;-80
2023/03/07 07:51:54;;;;;;;25.75;14.68;;;3.80;56.80;;;;;;4950261;28;117538;-80
2023/03/07 07:54:24;;;;;;;22.58;13.50;;;3.80;56.60;;;;;;4968613;28;114933;-80
2023/03/07 07:56:51;;;;;;;22.67;13.40;;;3.90;56.40;;;;;;4968220;28;114788;-78
2023/03/07 07:59:20;;;;;;;21.48;14.20;;;4.10;56.20;;;;;;4951211;28;115279;-79
2023/03/07 08:01:47;;;;;;;20.13;13.15;;;4.20;55.90;;;;;;4983297;28;114774;-80
2023/03/07 08:04:15;;;;;;;21.90;12.93;;;4.20;55.70;;;;;;4947842;28;114394;-79
2023/03/07 08:06:43;;;;;;;22.33;13.45;;;4.30;55.40;;;;;;4976797;28;114476;-78
2023/03/07 08:09:10;;;;;;;23.15;13.68;;;4.30;55.10;;;;;;4983736;28;115204;-79
2023/03/07 08:11:37;;;;;;;19.25;12.45;;;4.30;54.90;;;;;;5001120;28;114673;-78
2023/03/07 08:14:04;;;;;;;17.98;11.85;;;4.30;54.70;;;;;;5000711;28;114510;-79
2023/03/07 08:16:32;;;;;;;19.23;12.63;;;4.30;54.30;;;;;;4983657;28;114422;-80
2023/03/07 08:18:59;;;;;;;20.80;12.25;;;4.40;54.30;;;;;;5001237;28;115084;-80
2023/03/07 08:21:27;;;;;;;18.45;11.02;;;4.40;54.10;;;;;;4969697;28;116723;-80
2023/03/07 08:23:54;;;;;;;16.02;10.50;;;4.40;53.80;;;;;;4964602;28;114338;-80
2023/03/07 08:26:22;;;;;;;16.73;10.52;;;4.40;53.50;;;;;;4966469;28;114433;-80
2023/03/07 08:28:49;;;;;;;18.38;11.93;;;4.40;53.10;;;;;;4967112;28;115073;-80
2023/03/07 08:31:24;;;;;;;17.30;10.60;;;4.50;53.30;;;;;;4967526;28;115270;-79
2023/03/07 08:33:54;;;;;;;17.80;11.25;;;4.50;53.00;;;;;;4968818;28;114671;-80
2023/03/07 08:36:21;;;;;;;17.42;10.73;;;4.50;52.60;;;;;;4967869;28;114278;-79
2023/03/07 08:38:50;;;;;;;19.65;11.70;;;4.60;52.70;;;;;;4909503;28;115719;-80
2023/03/07 08:41:18;;;;;;;18.20;10.82;;;4.60;52.80;;;;;;4926676;28;115342;-80
2023/03/07 08:43:46;;;;;;;18.65;10.40;;;4.60;52.70;;;;;;4911181;28;114610;-80
2023/03/07 08:46:13;;;;;;;19.58;11.25;;;4.70;52.70;;;;;;4895514;28;115645;-80
2023/03/07 08:48:41;;;;;;;26.52;12.07;;;4.70;52.10;;;;;;4910626;28;114851;-80
2023/03/07 08:51:11;;;;;;;53.15;23.67;;;4.70;52.10;;;;;;4926566;28;114688;-80
2023/03/07 08:53:38;;;;;;;20.17;11.73;;;4.80;52.70;;;;;;4926888;28;114457;-79
2023/03/07 08:56:07;;;;;;;18.48;11.07;;;4.90;52.20;;;;;;4943337;28;114425;-80
2023/03/07 08:58:34;;;;;;;17.75;11.60;;;5.00;52.00;;;;;;4926563;28;115286;-80
2023/03/07 09:01:02;;;;;;;18.27;11.30;;;5.10;51.60;;;;;;4909992;28;114829;-80
2023/03/07 09:03:29;;;;;;;15.07;10.55;;;5.10;51.50;;;;;;4926590;28;114356;-80
2023/03/07 09:05:56;;;;;;;17.80;10.85;;;5.20;51.30;;;;;;4948367;28;114800;-79
2023/03/07 09:08:24;;;;;;;18.40;10.43;;;5.20;51.30;;;;;;4961798;28;115464;-80
2023/03/07 09:10:51;;;;;;;21.00;10.85;;;5.20;51.10;;;;;;4932896;28;114821;-79
2023/03/07 09:13:19;;;;;;;19.77;11.52;;;5.30;51.20;;;;;;4945726;28;114439;-79
2023/03/07 09:15:46;;;;;;;14.63;9.63;;;5.30;50.90;;;;;;4972426;28;114645;-79
2023/03/07 09:18:13;;;;;;;20.65;11.07;;;5.30;50.50;;;;;;4969473;28;115174;-80
2023/03/07 09:20:40;;;;;;;21.08;10.95;;;5.20;50.50;;;;;;4969981;28;114664;-79
2023/03/07 09:23:09;;;;;;;19.30;10.93;;;5.20;50.70;;;;;;5004441;28;114511;-79
2023/03/07 09:25:37;;;;;;;21.02;11.13;;;5.30;50.70;;;;;;5004344;28;114311;-80
2023/03/07 09:28:04;;;;;;;15.98;10.55;;;5.30;50.90;;;;;;4985172;28;115125;-79
2023/03/07 09:30:31;;;;;;;18.48;10.45;;;5.40;50.70;;;;;;4985651;28;114876;-79
2023/03/07 09:32:59;;;;;;;17.17;10.35;;;5.40;50.40;;;;;;5004319;28;114514;-79
2023/03/07 09:35:26;;;;;;;15.80;9.85;;;5.40;50.40;;;;;;4986450;28;114435;-79
2023/03/07 09:37:53;;;;;;;17.42;9.55;;;5.30;50.00;;;;;;4985082;28;115121;-80
2023/03/07 09:40:22;;;;;;;15.65;9.65;;;5.30;50.10;;;;;;5003418;28;114659;-80
2023/03/07 09:43:10;;;;;;;19.08;10.85;;;5.20;49.80;;;;;;4986033;28;114979;-80
2023/03/07 09:46:02;;;;;;;37.17;19.55;;;5.30;50.40;;;;;;4986603;28;114358;-79
2023/03/07 09:49:07;;;;;;;16.38;10.02;;;5.30;50.40;;;;;;4985325;28;115051;-79
2023/03/07 09:51:38;;;;;;;18.27;10.63;;;5.30;50.40;;;;;;5003132;28;115096;-80
2023/03/07 09:54:46;;;;;;;19.73;10.77;;;5.30;50.40;;;;;;4985828;28;114436;-81
2023/03/07 09:57:21;;;;;;;18.05;10.82;;;5.30;50.40;;;;;;4926193;28;114400;-79
2023/03/07 09:59:52;;;;;;;21.55;11.00;;;5.30;49.90;;;;;;4985641;28;115304;-78
2023/03/07 10:02:35;;;;;;;19.95;11.52;;;5.30;50.10;;;;;;4953634;28;114725;-78
2023/03/07 10:05:09;;;;;;;18.70;10.60;;;5.30;49.90;;;;;;4986465;28;114455;-78
2023/03/07 10:07:36;;;;;;;19.65;11.55;;;5.30;50.00;;;;;;4985935;28;114564;-80
2023/03/07 10:10:13;;;;;;;23.05;11.85;;;5.20;50.40;;;;;;4985385;28;115273;-80
2023/03/07 10:12:49;;;;;;;18.95;11.23;;;5.40;50.50;;;;;;4969351;28;114728;-80
2023/03/07 10:15:41;;;;;;;17.05;10.30;;;5.40;50.10;;;;;;4985892;28;114437;-80
2023/03/07 10:18:32;;;;;;;18.95;10.95;;;5.50;49.90;;;;;;4969070;28;114446;-80
2023/03/07 10:21:27;;;;;;;16.42;9.35;;;5.50;49.80;;;;;;4970091;28;115714;-80
2023/03/07 10:24:06;;;;;;;17.60;10.25;;;5.50;49.40;;;;;;5002621;28;114722;-80
2023/03/07 10:26:47;;;;;;;16.35;9.85;;;5.50;49.40;;;;;;5003312;28;114805;-80
2023/03/07 10:29:17;;;;;;;17.00;10.48;;;5.50;49.50;;;;;;4971213;28;114813;-80
2023/03/07 10:31:47;;;;;;;14.57;9.30;;;5.50;49.40;;;;;;4985218;28;115168;-81
2023/03/07 10:34:27;;;;;;;20.83;11.50;;;5.50;49.30;;;;;;4968525;28;114719;-80
2023/03/07 10:37:03;;;;;;;17.35;9.77;;;5.60;49.50;;;;;;5003736;28;114284;-80
2023/03/07 10:39:55;;;;;;;20.25;11.02;;;5.60;48.90;;;;;;4970125;28;116306;-81
2023/03/07 10:42:26;;;;;;;20.15;10.63;;;5.60;48.80;;;;;;4985267;28;114867;-80
2023/03/07 10:44:54;;;;;;;14.88;10.02;;;5.60;49.00;;;;;;4968717;28;114808;-80
2023/03/07 10:47:24;;;;;;;15.95;10.13;;;5.60;49.20;;;;;;4985186;28;114607;-80
2023/03/07 10:50:26;;;;;;;17.02;11.23;;;5.70;49.40;;;;;;4953040;28;114408;-80
2023/03/07 10:53:00;;;;;;;19.77;11.20;;;5.80;49.30;;;;;;4967832;28;116423;-80
2023/03/07 10:55:43;;;;;;;17.35;10.80;;;5.90;49.10;;;;;;4967504;28;114891;-80
2023/03/07 10:58:26;;;;;;;17.58;11.00;;;6.00;48.80;;;;;;4968224;28;114409;-80
2023/03/07 11:01:05;;;;;;;16.75;10.75;;;6.00;48.70;;;;;;4957923;28;114934;-80
2023/03/07 11:03:46;;;;;;;18.02;11.98;;;6.00;48.60;;;;;;4968278;28;115271;-80
2023/03/07 11:06:40;;;;;;;24.85;12.23;;;6.10;48.80;;;;;;4945732;28;114811;-80
2023/03/07 11:09:15;;;;;;;16.80;10.73;;;6.10;48.50;;;;;;4952922;28;118697;-80
2023/03/07 11:11:48;;;;;;;17.35;10.80;;;6.10;48.40;;;;;;4963893;28;114582;-80
2023/03/07 11:14:15;;;;;;;16.08;10.27;;;6.10;48.20;;;;;;4962864;28;115187;-80
2023/03/07 11:16:54;;;;;;;14.65;10.13;;;6.10;48.40;;;;;;4947952;28;114890;-80
2023/03/07 11:19:37;;;;;;;18.10;10.65;;;6.10;48.00;;;;;;4964256;28;114818;-80
2023/03/07 11:22:35;;;;;;;16.60;10.57;;;6.10;48.30;;;;;;4964618;28;114938;-80
2023/03/07 11:25:22;;;;;;;16.48;10.00;;;6.20;48.40;;;;;;4929169;28;115656;-80
2023/03/07 11:27:56;;;;;;;83.65;22.92;;;6.20;48.40;;;;;;4953780;28;114694;-80
2023/03/07 11:30:46;;;;;;;17.23;10.25;;;6.20;48.50;;;;;;4962783;28;114832;-80
2023/03/07 11:33:30;;;;;;;15.65;9.65;;;6.30;48.30;;;;;;4948302;28;114908;-80
2023/03/07 11:36:24;;;;;;;18.65;10.48;;;6.30;48.30;;;;;;4965481;28;115948;-80
2023/03/07 11:38:56;;;;;;;20.33;11.30;;;6.40;48.40;;;;;;4976259;28;114670;-79
2023/03/07 11:41:30;;;;;;;15.80;10.70;;;6.40;48.40;;;;;;4960137;28;114771;-79
2023/03/07 11:44:19;;;;;;;15.77;10.77;;;6.50;47.80;;;;;;4947404;28;115556;-80
2023/03/07 11:46:52;;;;;;;21.80;11.70;;;6.60;47.60;;;;;;4965069;28;115116;-80
2023/03/07 11:49:28;;;;;;;16.85;11.02;;;6.50;47.50;;;;;;4961034;28;114694;-80
2023/03/07 11:52:45;;;;;;;18.25;10.93;;;6.50;47.40;;;;;;4961624;28;115734;-79
2023/03/07 11:55:26;;;;;;;18.55;11.30;;;6.50;47.30;;;;;;4949707;28;115432;-78
2023/03/07 11:58:11;;;;;;;19.25;11.75;;;6.50;47.50;;;;;;4961812;28;115870;-80
2023/03/07 12:01:13;;;;;;;17.63;11.25;;;6.50;47.30;;;;;;4956639;28;117468;-79
2023/03/07 12:04:22;;;;;;;21.45;10.82;;;6.50;47.00;;;;;;4948401;28;114382;-79
2023/03/07 12:07:22;;;;;;;16.85;10.93;;;6.40;47.20;;;;;;4966772;28;114653;-80
2023/03/07 12:10:16;;;;;;;16.92;10.43;;;6.40;47.20;;;;;;4968892;28;115691;-79
2023/03/07 12:13:05;;;;;;;17.70;10.65;;;6.30;47.20;;;;;;4953002;28;115528;-80
2023/03/07 12:16:22;;;;;;;17.90;10.93;;;6.20;47.20;;;;;;4966784;28;114799;-80
2023/03/07 12:19:20;;;;;;;20.30;12.43;;;6.20;47.20;;;;;;4948728;28;114546;-79
2023/03/07 12:22:23;;;;;;;21.40;13.20;;;6.10;47.30;;;;;;5003270;28;115263;-79
2023/03/07 12:25:13;;;;;;;18.77;11.73;;;6.10;47.50;;;;;;5004540;28;116801;-80
2023/03/07 12:28:05;;;;;;;20.02;11.52;;;6.10;47.60;;;;;;4971325;28;114328;-81
2023/03/07 12:30:52;;;;;;;19.38;11.32;;;6.10;47.40;;;;;;4921790;28;114400;-79
2023/03/07 12:33:28;;;;;;;18.50;11.02;;;6.00;47.40;;;;;;4967024;28;115237;-79
2023/03/07 12:36:00;;;;;;;19.80;11.95;;;6.00;47.80;;;;;;4951721;28;114829;-80
2023/03/07 12:38:41;;;;;;;19.25;11.40;;;6.00;47.70;;;;;;4935747;28;114563;-80
2023/03/07 12:41:34;;;;;;;18.23;11.10;;;6.10;47.40;;;;;;4936864;28;114439;-79
2023/03/07 12:44:05;;;;;;;23.23;12.52;;;6.10;47.40;;;;;;4967012;28;115195;-79
2023/03/07 12:46:42;;;;;;;19.60;12.25;;;6.10;47.10;;;;;;4935259;28;114723;-80
2023/03/07 12:49:42;;;;;;;19.23;11.80;;;6.10;47.40;;;;;;4952304;28;114748;-80
2023/03/07 12:52:52;;;;;;;21.65;12.38;;;6.10;47.50;;;;;;4955533;28;114613;-79
2023/03/07 12:55:45;;;;;;;20.98;11.75;;;6.10;47.40;;;;;;4949644;28;119197;-80
2023/03/07 12:58:23;;;;;;;18.42;11.23;;;6.10;47.70;;;;;;4967897;28;114669;-80